createdAt,value
2022-09-16T00:00:27.771Z,15.32
2022-09-16T00:02:55.386Z,15.28
2022-09-16T00:05:22.751Z,15.29
2022-09-16T00:07:49.373Z,15.28
2022-09-16T00:10:16.066Z,15.28
2022-09-16T00:12:42.751Z,15.26
2022-09-16T00:15:10.253Z,15.24
2022-09-16T00:17:37.970Z,15.22
2022-09-16T00:20:06.065Z,15.22
2022-09-16T00:22:33.239Z,15.16
2022-09-16T00:24:59.871Z,15.12
2022-09-16T00:27:26.772Z,15.07
2022-09-16T00:29:53.777Z,15.06
2022-09-16T00:32:20.503Z,15.01
2022-09-16T00:34:47.080Z,15.00
2022-09-16T00:37:13.604Z,14.92
2022-09-16T00:39:40.357Z,14.84
2022-09-16T00:42:07.005Z,14.84
2022-09-16T00:44:54.588Z,14.79
2022-09-16T00:47:40.433Z,14.75
2022-09-16T00:50:09.234Z,14.65
2022-09-16T00:52:37.163Z,14.61
2022-09-16T00:55:08.646Z,14.58
2022-09-16T00:57:36.852Z,14.61
2022-09-16T01:00:06.113Z,14.58
2022-09-16T01:02:32.697Z,14.55
2022-09-16T01:05:04.821Z,14.57
2022-09-16T01:07:40.308Z,14.57
2022-09-16T01:10:07.308Z,14.54
2022-09-16T01:12:35.135Z,14.50
2022-09-16T01:15:03.425Z,14.49
2022-09-16T01:17:57.362Z,14.45
2022-09-16T01:21:14.844Z,14.36
2022-09-16T01:24:00.889Z,14.34
2022-09-16T01:26:33.014Z,14.34
2022-09-16T01:29:25.772Z,14.27
2022-09-16T01:32:01.281Z,14.14
2022-09-16T01:34:56.048Z,14.06
2022-09-16T01:38:01.010Z,14.09
2022-09-16T01:41:04.828Z,14.09
2022-09-16T01:43:43.864Z,14.10
2022-09-16T01:46:13.095Z,14.00
2022-09-16T01:48:54.028Z,14.03
2022-09-16T01:51:40.892Z,14.02
2022-09-16T01:54:23.973Z,14.06
2022-09-16T01:57:28.788Z,14.08
2022-09-16T02:00:22.441Z,14.09
2022-09-16T02:02:58.777Z,14.07
2022-09-16T02:05:34.689Z,14.11
2022-09-16T02:08:12.301Z,14.07
2022-09-16T02:10:46.918Z,14.06
2022-09-16T02:13:25.942Z,14.07
2022-09-16T02:15:54.012Z,14.05
2022-09-16T02:18:27.314Z,14.00
2022-09-16T02:20:59.279Z,13.95
2022-09-16T02:23:33.335Z,13.89
2022-09-16T02:26:02.023Z,13.81
2022-09-16T02:28:35.119Z,13.80
2022-09-16T02:31:06.090Z,13.82
2022-09-16T02:33:47.540Z,13.79
2022-09-16T02:36:20.229Z,13.82
2022-09-16T02:38:53.232Z,13.82
2022-09-16T02:41:20.296Z,13.81
2022-09-16T02:43:46.838Z,13.77
2022-09-16T02:46:35.356Z,13.77
2022-09-16T02:49:23.532Z,13.78
2022-09-16T02:51:59.116Z,13.79
2022-09-16T02:54:54.129Z,13.77
2022-09-16T02:57:21.371Z,13.73
2022-09-16T02:59:48.901Z,13.69
2022-09-16T03:02:15.557Z,13.60
2022-09-16T03:04:42.051Z,13.53
2022-09-16T03:07:11.233Z,13.47
2022-09-16T03:09:41.621Z,13.36
2022-09-16T03:12:45.552Z,13.32
2022-09-16T03:15:24.160Z,13.23
2022-09-16T03:18:17.328Z,13.18
2022-09-16T03:20:46.840Z,13.11
2022-09-16T03:23:25.595Z,13.08
2022-09-16T03:26:04.603Z,13.11
2022-09-16T03:28:37.199Z,13.00
2022-09-16T03:31:38.278Z,13.02
2022-09-16T03:34:05.074Z,12.95
2022-09-16T03:36:36.170Z,12.90
2022-09-16T03:39:04.241Z,12.85
2022-09-16T03:41:34.034Z,12.85
2022-09-16T03:44:03.949Z,12.83
2022-09-16T03:46:31.891Z,12.80
2022-09-16T03:48:59.051Z,12.81
2022-09-16T03:51:26.304Z,12.81
2022-09-16T03:53:54.272Z,12.82
2022-09-16T03:56:23.634Z,12.80
2022-09-16T03:58:50.295Z,12.81
2022-09-16T04:01:16.977Z,12.80
2022-09-16T04:03:43.615Z,12.80
2022-09-16T04:06:10.195Z,12.80
2022-09-16T04:08:37.291Z,12.75
2022-09-16T04:11:05.896Z,12.73
2022-09-16T04:13:35.241Z,12.71
2022-09-16T04:16:03.620Z,12.63
2022-09-16T04:18:34.750Z,12.53
2022-09-16T04:21:03.501Z,12.46
2022-09-16T04:23:31.220Z,12.41
2022-09-16T04:25:59.746Z,12.43
2022-09-16T04:28:27.174Z,12.45
2022-09-16T04:30:54.065Z,12.44
2022-09-16T04:33:20.718Z,12.41
2022-09-16T04:35:47.905Z,12.39
2022-09-16T04:38:14.455Z,12.39
2022-09-16T04:40:41.019Z,12.37
2022-09-16T04:43:07.526Z,12.35
2022-09-16T04:45:34.043Z,12.34
2022-09-16T04:48:00.661Z,12.36
2022-09-16T04:50:27.758Z,12.42
2022-09-16T04:52:54.427Z,12.42
2022-09-16T04:55:24.131Z,12.43
2022-09-16T04:57:51.124Z,12.38
2022-09-16T05:00:17.660Z,12.35
2022-09-16T05:02:45.895Z,12.30
2022-09-16T05:05:13.289Z,12.26
2022-09-16T05:07:39.918Z,12.24
2022-09-16T05:10:06.908Z,12.25
2022-09-16T05:12:33.492Z,12.28
2022-09-16T05:15:00.002Z,12.28
2022-09-16T05:17:49.758Z,12.28
2022-09-16T05:20:15.841Z,12.22
2022-09-16T05:22:42.544Z,12.27
2022-09-16T05:25:09.444Z,12.29
2022-09-16T05:27:36.200Z,12.30
2022-09-16T05:30:02.736Z,12.35
2022-09-16T05:32:29.284Z,12.38
2022-09-16T05:34:56.285Z,12.28
2022-09-16T05:37:22.849Z,12.28
2022-09-16T05:39:49.407Z,12.36
2022-09-16T05:42:15.965Z,12.42
2022-09-16T05:44:42.535Z,12.43
2022-09-16T05:47:09.068Z,12.45
2022-09-16T05:49:35.593Z,12.49
2022-09-16T05:52:02.716Z,12.52
2022-09-16T05:54:29.278Z,12.55
2022-09-16T05:56:55.784Z,12.57
2022-09-16T05:59:24.056Z,12.58
2022-09-16T06:01:50.714Z,12.51
2022-09-16T06:04:17.254Z,12.50
2022-09-16T06:06:45.819Z,12.54
2022-09-16T06:09:21.173Z,12.59
2022-09-16T06:11:50.161Z,12.65
2022-09-16T06:14:18.464Z,12.65
2022-09-16T06:16:46.039Z,12.63
2022-09-16T06:19:15.755Z,12.57
2022-09-16T06:21:43.981Z,12.57
2022-09-16T06:24:11.718Z,12.53
2022-09-16T06:26:40.155Z,12.53
2022-09-16T06:29:07.636Z,12.58
2022-09-16T06:31:36.223Z,12.67
2022-09-16T06:34:03.245Z,12.75
2022-09-16T06:36:35.128Z,12.74
2022-09-16T06:39:01.719Z,12.77
2022-09-16T06:41:28.554Z,12.79
2022-09-16T06:43:55.368Z,12.79
2022-09-16T06:46:24.784Z,12.86
2022-09-16T06:48:53.942Z,12.93
2022-09-16T06:51:22.808Z,12.98
2022-09-16T06:53:50.870Z,13.04
2022-09-16T06:56:20.033Z,13.12
2022-09-16T06:58:49.321Z,13.15
2022-09-16T07:01:21.156Z,13.15
2022-09-16T07:03:50.784Z,13.16
2022-09-16T07:06:19.286Z,13.12
2022-09-16T07:08:46.496Z,13.15
2022-09-16T07:11:14.794Z,13.18
2022-09-16T07:13:42.566Z,13.23
2022-09-16T07:16:18.103Z,13.31
2022-09-16T07:18:46.353Z,13.35
2022-09-16T07:21:17.898Z,13.39
2022-09-16T07:23:45.938Z,13.44
2022-09-16T07:26:15.904Z,13.47
2022-09-16T07:28:44.312Z,13.49
2022-09-16T07:31:13.047Z,13.54
2022-09-16T07:33:42.698Z,13.58
2022-09-16T07:36:11.590Z,13.63
2022-09-16T07:38:38.577Z,13.71
2022-09-16T07:41:16.507Z,13.80
2022-09-16T07:43:44.107Z,13.86
2022-09-16T07:46:12.449Z,13.88
2022-09-16T07:48:40.060Z,13.88
2022-09-16T07:51:09.193Z,13.90
2022-09-16T07:53:36.081Z,13.90
2022-09-16T07:56:08.235Z,13.96
2022-09-16T07:58:35.165Z,13.97
2022-09-16T08:01:04.861Z,14.00
2022-09-16T08:03:36.187Z,14.01
2022-09-16T08:06:09.602Z,14.10
2022-09-16T08:08:36.372Z,14.19
2022-09-16T08:11:03.882Z,14.31
2022-09-16T08:13:32.813Z,14.37
2022-09-16T08:16:05.709Z,14.42
2022-09-16T08:18:32.916Z,14.51
2022-09-16T08:21:04.648Z,14.60
2022-09-16T08:23:31.330Z,14.66
2022-09-16T08:26:01.431Z,14.74
2022-09-16T08:28:39.820Z,14.81
2022-09-16T08:31:17.301Z,14.92
2022-09-16T08:33:44.824Z,14.99
2022-09-16T08:36:19.782Z,15.10
2022-09-16T08:38:47.887Z,15.19
2022-09-16T08:41:17.622Z,15.22
2022-09-16T08:44:08.702Z,15.28
2022-09-16T08:46:37.502Z,15.38
2022-09-16T08:49:26.915Z,15.43
2022-09-16T08:51:55.657Z,15.51
2022-09-16T08:54:27.559Z,15.60
2022-09-16T08:56:57.827Z,15.67
2022-09-16T08:59:30.450Z,15.71
2022-09-16T09:02:09.739Z,15.73
2022-09-16T09:04:36.706Z,15.81
2022-09-16T09:07:17.065Z,15.84
2022-09-16T09:10:10.715Z,15.90
2022-09-16T09:12:42.807Z,15.96
2022-09-16T09:15:29.442Z,15.94
2022-09-16T09:18:18.051Z,15.94
2022-09-16T09:20:56.676Z,16.06
2022-09-16T09:24:18.449Z,16.15
2022-09-16T09:26:47.838Z,16.26
2022-09-16T09:29:54.897Z,16.33
2022-09-16T09:32:27.398Z,16.43
2022-09-16T09:35:05.735Z,16.58
2022-09-16T09:37:47.035Z,16.67
2022-09-16T09:40:31.454Z,16.61
2022-09-16T09:43:14.601Z,16.60
2022-09-16T09:45:56.446Z,16.61
2022-09-16T09:48:32.314Z,16.66
2022-09-16T09:51:02.761Z,16.70
2022-09-16T09:53:29.293Z,16.71
2022-09-16T09:56:11.374Z,16.74
2022-09-16T09:58:58.838Z,16.72
2022-09-16T10:01:25.413Z,16.76
2022-09-16T10:03:56.113Z,16.79
2022-09-16T10:06:29.210Z,16.83
2022-09-16T10:08:58.512Z,16.81
2022-09-16T10:11:28.509Z,16.81
2022-09-16T10:13:58.123Z,16.80
2022-09-16T10:16:33.030Z,16.84
2022-09-16T10:19:17.169Z,16.83
2022-09-16T10:21:47.756Z,16.87
2022-09-16T10:24:43.278Z,16.92
2022-09-16T10:27:22.370Z,16.98
2022-09-16T10:30:02.396Z,17.01
2022-09-16T10:32:29.089Z,17.04
2022-09-16T10:34:56.506Z,17.03
2022-09-16T10:37:27.891Z,17.02
2022-09-16T10:39:57.173Z,17.00
2022-09-16T10:42:26.629Z,16.95
2022-09-16T10:44:57.458Z,16.88
2022-09-16T10:47:28.907Z,16.92
2022-09-16T10:50:02.155Z,16.95
2022-09-16T10:52:31.315Z,16.92
2022-09-16T10:55:09.910Z,16.92
2022-09-16T10:57:40.300Z,16.99
2022-09-16T11:00:13.670Z,17.05
2022-09-16T11:02:58.419Z,17.15
2022-09-16T11:05:46.321Z,17.20
2022-09-16T11:08:20.878Z,17.25
2022-09-16T11:11:12.057Z,17.26
2022-09-16T11:14:04.517Z,17.27
2022-09-16T11:16:46.008Z,17.30
2022-09-16T11:19:17.316Z,17.32
2022-09-16T11:22:01.808Z,17.40
2022-09-16T11:24:34.766Z,17.47
2022-09-16T11:27:10.347Z,17.53
2022-09-16T11:30:02.106Z,17.59
2022-09-16T11:32:40.623Z,17.63
2022-09-16T11:35:34.971Z,17.63
2022-09-16T11:38:13.384Z,17.69
2022-09-16T11:41:11.720Z,17.73
2022-09-16T11:44:09.126Z,17.74
2022-09-16T11:46:57.500Z,17.77
2022-09-16T11:49:33.657Z,17.81
2022-09-16T11:52:09.336Z,17.86
2022-09-16T11:54:35.846Z,17.85
2022-09-16T11:57:10.809Z,17.82
2022-09-16T11:59:52.674Z,17.83
2022-09-16T12:02:29.822Z,17.88
2022-09-16T12:05:23.333Z,17.89
2022-09-16T12:08:23.131Z,17.94
2022-09-16T12:11:19.671Z,17.93
2022-09-16T12:14:05.483Z,17.95
2022-09-16T12:16:48.183Z,17.89
2022-09-16T12:19:26.272Z,17.89
2022-09-16T12:21:59.485Z,17.83
2022-09-16T12:24:42.711Z,17.81
2022-09-16T12:27:20.100Z,17.83
2022-09-16T12:29:56.820Z,17.85
2022-09-16T12:32:51.126Z,17.84
2022-09-16T12:35:25.110Z,17.86
2022-09-16T12:37:54.147Z,17.86
2022-09-16T12:40:24.448Z,17.84
2022-09-16T12:43:27.253Z,17.88
2022-09-16T12:45:59.615Z,17.88
2022-09-16T12:48:56.763Z,17.85
2022-09-16T12:51:38.850Z,17.88
2022-09-16T12:54:23.976Z,17.84
2022-09-16T12:57:18.606Z,17.84
2022-09-16T13:00:07.525Z,17.89
2022-09-16T13:02:39.729Z,17.88
2022-09-16T13:05:23.745Z,17.95
2022-09-16T13:07:57.821Z,17.92
2022-09-16T13:10:54.450Z,17.89
2022-09-16T13:13:31.745Z,17.92
2022-09-16T13:16:01.003Z,17.95
2022-09-16T13:18:46.343Z,17.99
2022-09-16T13:21:27.338Z,18.07
2022-09-16T13:24:22.999Z,18.02
2022-09-16T13:26:50.161Z,18.04
2022-09-16T13:29:42.679Z,18.09
2022-09-16T13:32:50.556Z,18.11
2022-09-16T13:35:19.947Z,18.13
2022-09-16T13:37:48.903Z,18.09
2022-09-16T13:40:25.936Z,18.02
2022-09-16T13:43:23.931Z,18.05
2022-09-16T13:46:11.146Z,18.10
2022-09-16T13:48:43.656Z,18.17
2022-09-16T13:51:16.478Z,18.11
2022-09-16T13:53:46.619Z,18.08
2022-09-16T13:56:13.680Z,18.05
2022-09-16T13:59:17.409Z,18.08
2022-09-16T14:02:00.237Z,18.17
2022-09-16T14:05:02.354Z,18.22
2022-09-16T14:07:55.661Z,18.23
2022-09-16T14:10:45.042Z,18.18
2022-09-16T14:13:13.580Z,18.09
2022-09-16T14:15:47.649Z,18.10
2022-09-16T14:18:17.941Z,18.13
2022-09-16T14:21:18.581Z,18.05
2022-09-16T14:23:45.217Z,17.96
2022-09-16T14:26:20.630Z,17.92
2022-09-16T14:28:47.948Z,17.78
2022-09-16T14:31:18.888Z,17.73
2022-09-16T14:33:56.384Z,17.69
2022-09-16T14:36:26.989Z,17.63
2022-09-16T14:39:02.414Z,17.62
2022-09-16T14:41:40.522Z,17.66
2022-09-16T14:44:19.362Z,17.69
2022-09-16T14:46:49.455Z,17.71
2022-09-16T14:49:18.403Z,17.75
2022-09-16T14:51:58.442Z,17.67
2022-09-16T14:54:27.144Z,17.65
2022-09-16T14:56:58.425Z,17.61
2022-09-16T14:59:36.206Z,17.60
2022-09-16T15:02:16.792Z,17.58
2022-09-16T15:04:47.454Z,17.56
2022-09-16T15:07:50.579Z,17.55
2022-09-16T15:10:32.690Z,17.52
2022-09-16T15:13:15.565Z,17.51
2022-09-16T15:16:00.069Z,17.48
2022-09-16T15:18:28.499Z,17.42
2022-09-16T15:21:32.785Z,17.38
2022-09-16T15:24:01.922Z,17.34
2022-09-16T15:26:41.927Z,17.24
2022-09-16T15:29:17.219Z,17.24
2022-09-16T15:31:45.007Z,17.19
2022-09-16T15:34:23.916Z,17.16
2022-09-16T15:36:50.420Z,17.10
2022-09-16T15:39:34.092Z,17.08
2022-09-16T15:42:12.096Z,17.04
2022-09-16T15:44:52.572Z,16.98
2022-09-16T15:47:29.011Z,16.88
2022-09-16T15:50:03.591Z,16.85
2022-09-16T15:52:34.032Z,16.86
2022-09-16T15:55:05.050Z,16.77
2022-09-16T15:57:33.805Z,16.71
2022-09-16T16:00:13.165Z,16.67
2022-09-16T16:03:01.482Z,16.53
2022-09-16T16:05:31.894Z,16.52
2022-09-16T16:08:08.972Z,16.46
2022-09-16T16:10:36.590Z,16.44
2022-09-16T16:13:04.735Z,16.41
2022-09-16T16:15:35.679Z,16.43
2022-09-16T16:18:05.718Z,16.47
2022-09-16T16:20:34.138Z,16.46
2022-09-16T16:23:01.933Z,16.42
2022-09-16T16:25:28.821Z,16.18
2022-09-16T16:27:55.546Z,16.18
2022-09-16T16:30:22.196Z,16.22
2022-09-16T16:32:48.960Z,16.23
2022-09-16T16:35:15.507Z,16.28
2022-09-16T16:37:46.767Z,16.18
2022-09-16T16:40:14.963Z,16.11
2022-09-16T16:42:43.544Z,16.10
2022-09-16T16:45:12.917Z,16.09
2022-09-16T16:47:40.619Z,16.06
2022-09-16T16:50:08.407Z,16.05
2022-09-16T16:52:35.040Z,16.02
2022-09-16T16:55:08.268Z,16.00
2022-09-16T16:57:36.961Z,15.95
2022-09-16T17:00:04.963Z,15.89
2022-09-16T17:02:31.934Z,15.87
2022-09-16T17:04:58.907Z,15.85
2022-09-16T17:07:27.474Z,15.79
2022-09-16T17:09:54.969Z,15.74
2022-09-16T17:12:21.586Z,15.70
2022-09-16T17:14:48.156Z,15.63
2022-09-16T17:17:14.696Z,15.58
2022-09-16T17:19:41.232Z,15.57
2022-09-16T17:22:07.846Z,15.56
2022-09-16T17:24:34.889Z,15.51
2022-09-16T17:27:02.073Z,15.41
2022-09-16T17:29:28.789Z,15.33
2022-09-16T17:31:57.127Z,15.22
2022-09-16T17:34:26.394Z,15.11
2022-09-16T17:36:53.193Z,15.08
2022-09-16T17:39:22.795Z,14.99
2022-09-16T17:41:50.124Z,14.95
2022-09-16T17:44:17.925Z,14.91
2022-09-16T17:46:45.453Z,14.91
2022-09-16T17:49:21.266Z,14.91
2022-09-16T17:51:48.950Z,14.91
2022-09-16T17:54:17.253Z,14.86
2022-09-16T17:56:44.467Z,14.80
2022-09-16T17:59:12.624Z,14.74
2022-09-16T18:01:39.742Z,14.68
2022-09-16T18:04:07.095Z,14.67
2022-09-16T18:06:45.366Z,14.60
2022-09-16T18:09:13.203Z,14.57
2022-09-16T18:11:40.423Z,14.55
2022-09-16T18:14:08.544Z,14.56
2022-09-16T18:16:35.685Z,14.50
2022-09-16T18:19:04.005Z,14.47
2022-09-16T18:21:31.502Z,14.42
2022-09-16T18:24:00.662Z,14.34
2022-09-16T18:26:27.170Z,14.32
2022-09-16T18:29:11.805Z,14.33
2022-09-16T18:31:40.635Z,14.31
2022-09-16T18:34:07.396Z,14.27
2022-09-16T18:36:35.265Z,14.24
2022-09-16T18:39:02.309Z,14.24
2022-09-16T18:41:34.268Z,14.21
2022-09-16T18:44:03.592Z,14.16
2022-09-16T18:46:32.366Z,14.10
2022-09-16T18:48:59.485Z,14.01
2022-09-16T18:51:33.620Z,13.95
2022-09-16T18:54:02.747Z,13.90
2022-09-16T18:56:31.887Z,13.82
2022-09-16T18:59:21.141Z,13.76
2022-09-16T19:01:49.258Z,13.70
2022-09-16T19:04:18.212Z,13.60
2022-09-16T19:06:47.899Z,13.58
2022-09-16T19:09:17.106Z,13.59
2022-09-16T19:11:43.915Z,13.54
2022-09-16T19:14:15.392Z,13.48
2022-09-16T19:16:44.150Z,13.42
2022-09-16T19:19:13.415Z,13.39
2022-09-16T19:21:41.014Z,13.40
2022-09-16T19:24:13.903Z,13.41
2022-09-16T19:26:41.178Z,13.34
2022-09-16T19:29:08.508Z,13.32
2022-09-16T19:31:37.802Z,13.22
2022-09-16T19:34:05.925Z,13.19
2022-09-16T19:36:33.204Z,13.17
2022-09-16T19:39:00.726Z,13.18
2022-09-16T19:41:30.891Z,13.12
2022-09-16T19:44:00.985Z,13.12
2022-09-16T19:46:29.166Z,13.11
2022-09-16T19:48:56.495Z,13.09
2022-09-16T19:51:24.186Z,13.04
2022-09-16T19:53:52.318Z,12.97
2022-09-16T19:56:23.903Z,12.92
2022-09-16T19:58:52.857Z,12.94
2022-09-16T20:01:23.898Z,12.87
2022-09-16T20:03:50.737Z,12.84
2022-09-16T20:06:28.918Z,12.80
2022-09-16T20:08:59.722Z,12.79
2022-09-16T20:11:31.738Z,12.77
2022-09-16T20:14:05.489Z,12.75
2022-09-16T20:16:37.584Z,12.70
2022-09-16T20:19:05.675Z,12.69
2022-09-16T20:21:35.017Z,12.60
2022-09-16T20:24:03.325Z,12.57
2022-09-16T20:26:29.840Z,12.60
2022-09-16T20:28:56.540Z,12.61
2022-09-16T20:31:28.819Z,12.57
2022-09-16T20:33:55.966Z,12.55
2022-09-16T20:36:25.226Z,12.50
2022-09-16T20:38:52.511Z,12.51
2022-09-16T20:41:21.940Z,12.55
2022-09-16T20:43:49.033Z,12.54
2022-09-16T20:46:22.107Z,12.50
2022-09-16T20:48:49.492Z,12.52
2022-09-16T20:51:19.088Z,12.51
2022-09-16T20:53:54.892Z,12.49
2022-09-16T20:56:22.238Z,12.49
2022-09-16T20:58:49.298Z,12.48
2022-09-16T21:01:24.341Z,12.49
2022-09-16T21:03:53.289Z,12.51
2022-09-16T21:06:20.115Z,12.50
2022-09-16T21:08:47.604Z,12.46
2022-09-16T21:11:17.881Z,12.47
2022-09-16T21:13:46.949Z,12.40
2022-09-16T21:16:15.748Z,12.40
2022-09-16T21:18:43.036Z,12.34
2022-09-16T21:21:17.726Z,12.29
2022-09-16T21:23:48.398Z,12.27
2022-09-16T21:26:20.819Z,12.25
2022-09-16T21:28:57.031Z,12.23
2022-09-16T21:31:25.150Z,12.20
2022-09-16T21:33:52.381Z,12.17
2022-09-16T21:36:20.711Z,12.13
2022-09-16T21:38:47.728Z,12.05
2022-09-16T21:41:16.698Z,12.06
2022-09-16T21:43:45.576Z,12.08
2022-09-16T21:46:13.770Z,12.14
2022-09-16T21:48:42.546Z,12.18
2022-09-16T21:51:12.178Z,12.13
2022-09-16T21:53:42.757Z,12.17
2022-09-16T21:56:14.365Z,12.17
2022-09-16T21:58:42.137Z,12.18
2022-09-16T22:01:17.510Z,12.22
2022-09-16T22:03:46.151Z,12.23
2022-09-16T22:06:14.936Z,12.24
2022-09-16T22:08:48.964Z,12.23
2022-09-16T22:11:28.417Z,12.24
2022-09-16T22:13:56.446Z,12.28
2022-09-16T22:16:28.774Z,12.26
2022-09-16T22:18:58.139Z,12.25
2022-09-16T22:21:27.468Z,12.20
2022-09-16T22:23:54.262Z,12.22
2022-09-16T22:26:22.790Z,12.24
2022-09-16T22:28:50.688Z,12.29
2022-09-16T22:31:29.265Z,12.28
2022-09-16T22:33:58.054Z,12.30
2022-09-16T22:36:27.523Z,12.30
2022-09-16T22:38:56.789Z,12.27
2022-09-16T22:41:24.427Z,12.26
2022-09-16T22:43:52.908Z,12.28
2022-09-16T22:46:23.484Z,12.30
2022-09-16T22:48:50.475Z,12.34
2022-09-16T22:51:18.470Z,12.32
2022-09-16T22:53:45.826Z,12.23
2022-09-16T22:56:15.371Z,12.23
2022-09-16T22:58:44.205Z,12.27
2022-09-16T23:01:17.068Z,12.27
2022-09-16T23:03:45.345Z,12.26
2022-09-16T23:06:14.595Z,12.28
2022-09-16T23:08:42.864Z,12.24
2022-09-16T23:11:13.260Z,12.22
2022-09-16T23:13:41.970Z,12.25
2022-09-16T23:16:15.322Z,12.28
2022-09-16T23:18:43.295Z,12.28
2022-09-16T23:21:12.320Z,12.30
2022-09-16T23:23:41.713Z,12.34
2022-09-16T23:26:11.731Z,12.36
2022-09-16T23:28:38.642Z,12.36
2022-09-16T23:31:07.432Z,12.36
2022-09-16T23:33:34.476Z,12.36
2022-09-16T23:36:01.814Z,12.33
2022-09-16T23:38:28.672Z,12.30
2022-09-16T23:40:55.886Z,12.29
2022-09-16T23:43:24.507Z,12.30
2022-09-16T23:45:51.119Z,12.32
2022-09-16T23:48:17.772Z,12.28
2022-09-16T23:50:45.109Z,12.20
2022-09-16T23:53:12.064Z,12.21
2022-09-16T23:55:44.735Z,12.23
2022-09-16T23:58:11.982Z,12.24
